createdAt,value
2018-09-17T00:00:15.477Z,16.47
2018-09-17T00:01:15.453Z,16.57
2018-09-17T00:02:15.456Z,16.46
2018-09-17T00:03:15.408Z,16.58
2018-09-17T00:04:15.400Z,16.58
2018-09-17T00:05:15.387Z,16.51
2018-09-17T00:06:15.432Z,16.57
2018-09-17T00:07:15.360Z,16.52
2018-09-17T00:08:15.357Z,16.52
2018-09-17T00:09:15.336Z,16.52
2018-09-17T00:10:15.374Z,16.49
2018-09-17T00:11:15.324Z,16.58
2018-09-17T00:12:15.259Z,16.51
2018-09-17T00:13:15.228Z,16.61
2018-09-17T00:14:15.204Z,16.52
2018-09-17T00:15:15.293Z,16.55
2018-09-17T00:16:15.207Z,16.51
2018-09-17T00:17:15.224Z,16.52
2018-09-17T00:18:15.210Z,16.52
2018-09-17T00:19:15.184Z,16.47
2018-09-17T00:20:15.086Z,16.51
2018-09-17T00:21:15.140Z,16.54
2018-09-17T00:22:15.100Z,16.54
2018-09-17T00:23:15.093Z,16.54
2018-09-17T00:24:15.117Z,16.57
2018-09-17T00:25:15.104Z,16.57
2018-09-17T00:26:15.140Z,16.52
2018-09-17T00:27:15.127Z,16.47
2018-09-17T00:28:15.039Z,16.46
2018-09-17T00:29:15.021Z,16.52
2018-09-17T00:30:15.016Z,16.52
2018-09-17T00:31:14.995Z,16.43
2018-09-17T00:32:14.974Z,16.51
2018-09-17T00:33:14.933Z,16.43
2018-09-17T00:34:14.955Z,16.42
2018-09-17T00:35:14.968Z,16.34
2018-09-17T00:36:14.915Z,16.34
2018-09-17T00:37:14.922Z,16.17
2018-09-17T00:38:14.853Z,16.18
2018-09-17T00:39:14.902Z,16.18
2018-09-17T00:40:14.882Z,16.26
2018-09-17T00:41:14.880Z,16.22
2018-09-17T00:42:14.906Z,16.22
2018-09-17T00:43:14.816Z,16.21
2018-09-17T00:44:14.823Z,16.32
2018-09-17T00:45:14.768Z,16.29
2018-09-17T00:46:14.762Z,16.28
2018-09-17T00:47:14.781Z,16.18
2018-09-17T00:48:14.759Z,16.28
2018-09-17T00:49:14.739Z,16.29
2018-09-17T00:50:14.650Z,16.21
2018-09-17T00:51:14.637Z,16.22
2018-09-17T00:52:14.635Z,16.10
2018-09-17T00:53:14.606Z,16.10
2018-09-17T00:54:14.590Z,16.10
2018-09-17T00:55:14.577Z,16.21
2018-09-17T00:56:14.563Z,16.13
2018-09-17T00:57:14.551Z,16.10
2018-09-17T00:58:14.534Z,16.10
2018-09-17T00:59:14.518Z,16.03
2018-09-17T01:00:14.502Z,16.00
2018-09-17T01:01:14.488Z,15.85
2018-09-17T01:02:14.473Z,15.88
2018-09-17T01:03:14.460Z,15.85
2018-09-17T01:04:14.444Z,15.93
2018-09-17T01:05:14.433Z,15.88
2018-09-17T01:06:14.417Z,15.80
2018-09-17T01:07:14.403Z,15.87
2018-09-17T01:08:14.385Z,15.78
2018-09-17T01:09:14.371Z,15.70
2018-09-17T01:10:14.356Z,15.80
2018-09-17T01:11:14.342Z,15.78
2018-09-17T01:12:14.327Z,15.80
2018-09-17T01:13:14.310Z,15.81
2018-09-17T01:14:14.298Z,15.91
2018-09-17T01:15:14.281Z,15.95
2018-09-17T01:16:14.267Z,15.96
2018-09-17T01:17:14.252Z,15.93
2018-09-17T01:18:14.236Z,15.93
2018-09-17T01:19:14.225Z,15.96
2018-09-17T01:20:14.207Z,15.96
2018-09-17T01:21:14.193Z,15.96
2018-09-17T01:22:14.182Z,15.88
2018-09-17T01:23:14.320Z,15.96
2018-09-17T01:24:14.190Z,15.93
2018-09-17T01:25:14.229Z,15.77
2018-09-17T01:26:14.216Z,15.68
2018-09-17T01:27:14.191Z,15.65
2018-09-17T01:28:14.142Z,15.60
2018-09-17T01:29:14.173Z,15.58
2018-09-17T01:30:14.157Z,15.50
2018-09-17T01:31:14.146Z,15.48
2018-09-17T01:32:14.058Z,15.48
2018-09-17T01:33:14.111Z,15.36
2018-09-17T01:34:14.063Z,15.32
2018-09-17T01:35:14.096Z,15.29
2018-09-17T01:36:14.010Z,15.22
2018-09-17T01:37:14.061Z,15.22
2018-09-17T01:38:14.031Z,15.12
2018-09-17T01:39:14.007Z,15.10
2018-09-17T01:40:13.985Z,14.90
2018-09-17T01:41:13.947Z,14.83
2018-09-17T01:42:13.910Z,14.74
2018-09-17T01:43:13.928Z,14.70
2018-09-17T01:44:14.002Z,14.73
2018-09-17T01:45:13.926Z,14.79
2018-09-17T01:46:13.952Z,14.78
2018-09-17T01:47:13.889Z,14.64
2018-09-17T01:48:13.856Z,14.67
2018-09-17T01:49:13.796Z,14.82
2018-09-17T01:50:13.845Z,14.78
2018-09-17T01:51:13.814Z,14.78
2018-09-17T01:52:13.816Z,14.85
2018-09-17T01:53:13.780Z,14.89
2018-09-17T01:54:13.785Z,14.83
2018-09-17T01:55:13.682Z,15.03
2018-09-17T01:56:13.753Z,15.01
2018-09-17T01:57:13.743Z,15.01
2018-09-17T01:58:13.673Z,15.01
2018-09-17T01:59:13.678Z,15.04
2018-09-17T02:00:13.643Z,14.99
2018-09-17T02:01:13.673Z,15.14
2018-09-17T02:02:13.648Z,15.08
2018-09-17T02:03:13.642Z,15.07
2018-09-17T02:04:13.614Z,15.05
2018-09-17T02:05:13.576Z,15.08
2018-09-17T02:06:13.539Z,15.14
2018-09-17T02:07:13.583Z,15.12
2018-09-17T02:08:13.547Z,15.14
2018-09-17T02:09:13.482Z,15.15
2018-09-17T02:10:13.608Z,15.10
2018-09-17T02:11:13.512Z,15.11
2018-09-17T02:12:13.431Z,15.05
2018-09-17T02:13:13.504Z,14.87
2018-09-17T02:14:13.481Z,14.83
2018-09-17T02:15:13.438Z,14.77
2018-09-17T02:16:13.451Z,14.69
2018-09-17T02:17:13.438Z,14.53
2018-09-17T02:18:13.375Z,14.56
2018-09-17T02:19:13.357Z,14.45
2018-09-17T02:20:13.435Z,14.48
2018-09-17T02:21:13.331Z,14.56
2018-09-17T02:22:13.375Z,14.55
2018-09-17T02:23:13.346Z,14.59
2018-09-17T02:24:13.351Z,14.71
2018-09-17T02:25:13.263Z,14.74
2018-09-17T02:26:13.307Z,14.74
2018-09-17T02:27:13.298Z,14.73
2018-09-17T02:28:13.180Z,14.83
2018-09-17T02:29:13.268Z,14.82
2018-09-17T02:30:13.307Z,14.89
2018-09-17T02:31:13.229Z,14.89
2018-09-17T02:32:13.133Z,14.90
2018-09-17T02:33:13.150Z,14.99
2018-09-17T02:34:13.188Z,15.01
2018-09-17T02:35:13.138Z,14.97
2018-09-17T02:36:13.088Z,15.03
2018-09-17T02:37:13.135Z,15.04
2018-09-17T02:38:13.133Z,14.96
2018-09-17T02:39:13.092Z,14.96
2018-09-17T02:40:13.115Z,15.01
2018-09-17T02:41:13.105Z,14.97
2018-09-17T02:42:13.041Z,14.97
2018-09-17T02:43:13.024Z,14.99
2018-09-17T02:44:13.022Z,14.97
2018-09-17T02:45:12.992Z,14.96
2018-09-17T02:46:13.043Z,15.01
2018-09-17T02:47:12.974Z,14.90
2018-09-17T02:48:12.969Z,14.90
2018-09-17T02:49:12.946Z,14.86
2018-09-17T02:50:12.884Z,14.86
2018-09-17T02:51:12.908Z,14.85
2018-09-17T02:52:12.820Z,14.85
2018-09-17T02:53:12.861Z,14.85
2018-09-17T02:54:12.816Z,14.83
2018-09-17T02:55:12.809Z,14.90
2018-09-17T02:56:12.787Z,14.82
2018-09-17T02:57:12.763Z,14.93
2018-09-17T02:58:12.745Z,14.92
2018-09-17T02:59:12.775Z,14.92
2018-09-17T03:00:12.767Z,14.87
2018-09-17T03:01:12.754Z,14.92
2018-09-17T03:02:12.747Z,14.82
2018-09-17T03:03:12.719Z,14.87
2018-09-17T03:04:12.677Z,14.86
2018-09-17T03:05:12.690Z,14.83
2018-09-17T03:06:12.713Z,14.82
2018-09-17T03:07:12.615Z,14.78
2018-09-17T03:08:12.648Z,14.74
2018-09-17T03:09:12.597Z,14.64
2018-09-17T03:10:12.634Z,14.46
2018-09-17T03:11:12.648Z,14.38
2018-09-17T03:12:12.581Z,14.38
2018-09-17T03:13:12.545Z,14.34
2018-09-17T03:14:12.523Z,14.34
2018-09-17T03:15:12.551Z,14.41
2018-09-17T03:16:12.508Z,14.41
2018-09-17T03:17:12.477Z,14.46
2018-09-17T03:18:12.489Z,14.51
2018-09-17T03:19:12.454Z,14.45
2018-09-17T03:20:12.445Z,14.56
2018-09-17T03:21:12.420Z,14.66
2018-09-17T03:22:12.467Z,14.59
2018-09-17T03:23:12.398Z,14.56
2018-09-17T03:24:12.394Z,14.53
2018-09-17T03:25:12.398Z,14.66
2018-09-17T03:26:12.288Z,14.67
2018-09-17T03:27:12.297Z,14.64
2018-09-17T03:28:12.350Z,14.67
2018-09-17T03:29:12.292Z,14.58
2018-09-17T03:30:12.303Z,14.45
2018-09-17T03:31:12.319Z,14.55
2018-09-17T03:32:12.327Z,14.49
2018-09-17T03:33:12.258Z,14.37
2018-09-17T03:34:12.253Z,14.45
2018-09-17T03:35:12.220Z,14.44
2018-09-17T03:36:12.185Z,14.38
2018-09-17T03:37:12.246Z,14.31
2018-09-17T03:38:12.135Z,14.16
2018-09-17T03:39:12.163Z,14.13
2018-09-17T03:40:12.065Z,14.15
2018-09-17T03:41:12.134Z,14.13
2018-09-17T03:42:12.132Z,14.13
2018-09-17T03:43:12.073Z,14.12
2018-09-17T03:44:12.025Z,14.04
2018-09-17T03:45:12.006Z,14.11
2018-09-17T03:46:12.070Z,14.16
2018-09-17T03:47:12.108Z,14.21
2018-09-17T03:48:12.063Z,14.18
2018-09-17T03:49:11.978Z,14.21
2018-09-17T03:50:11.943Z,14.28
2018-09-17T03:51:11.973Z,14.30
2018-09-17T03:52:11.987Z,14.30
2018-09-17T03:53:12.000Z,14.40
2018-09-17T03:54:11.907Z,14.38
2018-09-17T03:55:11.923Z,14.21
2018-09-17T03:56:11.911Z,14.21
2018-09-17T03:57:11.899Z,14.19
2018-09-17T03:58:11.865Z,14.12
2018-09-17T03:59:11.816Z,13.98
2018-09-17T04:00:11.849Z,13.85
2018-09-17T04:01:11.728Z,13.82
2018-09-17T04:02:11.749Z,13.83
2018-09-17T04:03:11.832Z,13.91
2018-09-17T04:04:11.735Z,13.96
2018-09-17T04:05:11.688Z,14.03
2018-09-17T04:06:11.687Z,14.04
2018-09-17T04:07:11.684Z,14.08
2018-09-17T04:08:11.682Z,14.13
2018-09-17T04:09:11.704Z,14.18
2018-09-17T04:10:11.731Z,14.16
2018-09-17T04:11:11.649Z,14.27
2018-09-17T04:12:11.598Z,14.26
2018-09-17T04:13:11.685Z,14.21
2018-09-17T04:14:11.632Z,14.09
2018-09-17T04:15:11.570Z,14.12
2018-09-17T04:16:11.558Z,14.16
2018-09-17T04:17:11.539Z,14.26
2018-09-17T04:18:11.550Z,14.11
2018-09-17T04:19:11.589Z,14.21
2018-09-17T04:20:11.427Z,14.31
2018-09-17T04:21:11.411Z,14.22
2018-09-17T04:22:11.405Z,14.31
2018-09-17T04:23:11.382Z,14.31
2018-09-17T04:24:11.363Z,14.36
2018-09-17T04:25:11.348Z,14.31
2018-09-17T04:26:11.336Z,14.33
2018-09-17T04:27:11.320Z,14.36
2018-09-17T04:28:11.302Z,14.41
2018-09-17T04:29:11.289Z,14.37
2018-09-17T04:30:11.269Z,14.44
2018-09-17T04:31:11.254Z,14.48
2018-09-17T04:32:11.238Z,14.45
2018-09-17T04:33:11.244Z,14.41
2018-09-17T04:34:11.214Z,14.41
2018-09-17T04:35:11.201Z,14.40
2018-09-17T04:36:11.174Z,14.44
2018-09-17T04:37:11.163Z,14.37
2018-09-17T04:38:11.143Z,14.31
2018-09-17T04:39:11.133Z,14.18
2018-09-17T04:40:11.121Z,14.19
2018-09-17T04:41:11.099Z,14.16
2018-09-17T04:42:11.083Z,14.22
2018-09-17T04:43:11.068Z,14.26
2018-09-17T04:44:11.050Z,14.30
2018-09-17T04:45:11.039Z,14.40
2018-09-17T04:46:11.015Z,14.49
2018-09-17T04:47:11.009Z,14.51
2018-09-17T04:48:10.997Z,14.49
2018-09-17T04:49:10.977Z,14.53
2018-09-17T04:50:10.954Z,14.52
2018-09-17T04:51:10.943Z,14.52
2018-09-17T04:52:10.925Z,14.55
2018-09-17T04:53:10.909Z,14.58
2018-09-17T04:54:10.890Z,14.41
2018-09-17T04:55:10.874Z,14.45
2018-09-17T04:56:10.858Z,14.45
2018-09-17T04:57:10.893Z,14.56
2018-09-17T04:58:10.824Z,14.49
2018-09-17T04:59:10.808Z,14.44
2018-09-17T05:00:10.796Z,14.36
2018-09-17T05:01:10.783Z,14.34
2018-09-17T05:02:10.764Z,14.18
2018-09-17T05:03:10.747Z,14.21
2018-09-17T05:04:10.734Z,14.19
2018-09-17T05:05:10.714Z,14.28
2018-09-17T05:06:10.702Z,14.23
2018-09-17T05:07:10.697Z,14.28
2018-09-17T05:08:10.667Z,14.33
2018-09-17T05:09:10.653Z,14.41
2018-09-17T05:10:10.637Z,14.38
2018-09-17T05:11:10.620Z,14.38
2018-09-17T05:12:10.605Z,14.40
2018-09-17T05:13:10.654Z,14.36
2018-09-17T05:14:10.571Z,14.38
2018-09-17T05:15:10.560Z,14.37
2018-09-17T05:16:10.541Z,14.37
2018-09-17T05:17:10.534Z,14.40
2018-09-17T05:18:10.509Z,14.40
2018-09-17T05:19:10.496Z,14.45
2018-09-17T05:20:10.481Z,14.30
2018-09-17T05:21:10.462Z,14.33
2018-09-17T05:22:10.444Z,14.31
2018-09-17T05:23:10.431Z,14.23
2018-09-17T05:24:10.414Z,14.31
2018-09-17T05:25:10.408Z,14.27
2018-09-17T05:26:10.384Z,14.31
2018-09-17T05:27:10.370Z,14.18
2018-09-17T05:28:10.355Z,14.26
2018-09-17T05:29:10.334Z,14.21
2018-09-17T05:30:10.321Z,14.28
2018-09-17T05:31:10.302Z,14.31
2018-09-17T05:32:10.287Z,14.27
2018-09-17T05:33:10.270Z,14.16
2018-09-17T05:34:10.254Z,14.16
2018-09-17T05:35:10.370Z,14.09
2018-09-17T05:36:10.229Z,14.09
2018-09-17T05:37:10.208Z,14.23
2018-09-17T05:38:10.193Z,14.16
2018-09-17T05:39:10.179Z,14.18
2018-09-17T05:40:10.177Z,14.18
2018-09-17T05:41:10.149Z,14.21
2018-09-17T05:42:10.132Z,14.15
2018-09-17T05:43:10.117Z,14.18
2018-09-17T05:44:10.100Z,14.21
2018-09-17T05:45:10.084Z,14.28
2018-09-17T05:46:10.073Z,14.36
2018-09-17T05:47:10.051Z,14.36
2018-09-17T05:48:10.038Z,14.38
2018-09-17T05:49:10.020Z,14.36
2018-09-17T05:50:10.007Z,14.36
2018-09-17T05:51:09.991Z,14.23
2018-09-17T05:52:09.975Z,14.28
2018-09-17T05:53:10.037Z,14.31
2018-09-17T05:54:10.026Z,14.27
2018-09-17T05:55:10.033Z,14.19
2018-09-17T05:56:09.987Z,14.15
2018-09-17T05:57:09.993Z,14.30
2018-09-17T05:58:09.966Z,14.26
2018-09-17T05:59:09.949Z,14.23
2018-09-17T06:00:09.896Z,14.28
2018-09-17T06:01:09.876Z,14.41
2018-09-17T06:02:09.816Z,14.40
2018-09-17T06:03:09.805Z,14.41
2018-09-17T06:04:09.786Z,14.37
2018-09-17T06:05:09.769Z,14.37
2018-09-17T06:06:09.899Z,14.41
2018-09-17T06:07:09.761Z,14.51
2018-09-17T06:08:09.733Z,14.55
2018-09-17T06:09:09.708Z,14.51
2018-09-17T06:10:09.695Z,14.53
2018-09-17T06:11:09.676Z,14.55
2018-09-17T06:12:09.662Z,14.56
2018-09-17T06:13:09.649Z,14.58
2018-09-17T06:14:09.629Z,14.56
2018-09-17T06:15:09.620Z,14.67
2018-09-17T06:16:09.600Z,14.71
2018-09-17T06:17:09.597Z,14.66
2018-09-17T06:18:09.575Z,14.78
2018-09-17T06:19:09.551Z,14.77
2018-09-17T06:20:09.541Z,14.77
2018-09-17T06:21:09.528Z,14.74
2018-09-17T06:22:09.508Z,14.74
2018-09-17T06:23:09.512Z,14.85
2018-09-17T06:24:09.478Z,14.87
2018-09-17T06:25:09.466Z,14.93
2018-09-17T06:26:09.445Z,14.99
2018-09-17T06:27:09.432Z,15.11
2018-09-17T06:28:09.417Z,15.08
2018-09-17T06:29:09.408Z,15.10
2018-09-17T06:30:09.390Z,14.96
2018-09-17T06:31:09.373Z,15.08
2018-09-17T06:32:09.359Z,15.01
2018-09-17T06:33:09.350Z,14.90
2018-09-17T06:34:09.327Z,15.01
2018-09-17T06:35:09.311Z,15.05
2018-09-17T06:36:09.361Z,15.15
2018-09-17T06:37:09.294Z,15.20
2018-09-17T06:38:09.268Z,15.35
2018-09-17T06:39:09.252Z,15.33
2018-09-17T06:40:09.238Z,15.48
2018-09-17T06:41:09.225Z,15.54
2018-09-17T06:42:09.210Z,15.52
2018-09-17T06:43:09.193Z,15.51
2018-09-17T06:44:09.179Z,15.48
2018-09-17T06:45:09.172Z,15.47
2018-09-17T06:46:09.158Z,15.62
2018-09-17T06:47:09.137Z,15.62
2018-09-17T06:48:09.123Z,15.68
2018-09-17T06:49:09.114Z,15.63
2018-09-17T06:50:09.095Z,15.77
2018-09-17T06:51:09.083Z,15.96
2018-09-17T06:52:09.073Z,16.03
2018-09-17T06:53:09.059Z,16.33
2018-09-17T06:54:09.049Z,16.76
2018-09-17T06:55:09.034Z,17.17
2018-09-17T06:56:09.023Z,17.71
2018-09-17T06:57:09.009Z,18.27
2018-09-17T06:58:09.003Z,18.85
2018-09-17T06:59:08.990Z,19.30
2018-09-17T07:00:08.980Z,19.47
2018-09-17T07:01:08.975Z,19.56
2018-09-17T07:02:08.960Z,19.68
2018-09-17T07:03:08.949Z,19.63
2018-09-17T07:04:08.940Z,19.77
2018-09-17T07:05:08.934Z,20.09
2018-09-17T07:06:08.943Z,20.32
2018-09-17T07:07:08.912Z,20.52
2018-09-17T07:08:08.906Z,20.50
2018-09-17T07:09:08.897Z,20.70
2018-09-17T07:10:08.891Z,21.00
2018-09-17T07:11:08.882Z,21.41
2018-09-17T07:12:08.883Z,21.82
2018-09-17T07:13:08.877Z,22.13
2018-09-17T07:14:08.867Z,22.28
2018-09-17T07:15:08.876Z,22.48
2018-09-17T07:16:08.861Z,22.40
2018-09-17T07:17:08.846Z,22.12
2018-09-17T07:18:08.944Z,22.07
2018-09-17T07:19:08.847Z,22.21
2018-09-17T07:20:08.835Z,22.49
2018-09-17T07:21:08.825Z,22.59
2018-09-17T07:22:08.821Z,22.85
2018-09-17T07:23:08.816Z,22.98
2018-09-17T07:24:08.816Z,23.07
2018-09-17T07:25:08.816Z,22.73
2018-09-17T07:26:08.810Z,22.58
2018-09-17T07:27:08.801Z,23.01
2018-09-17T07:28:08.799Z,23.36
2018-09-17T07:29:08.799Z,23.42
2018-09-17T07:30:08.794Z,23.88
2018-09-17T07:31:08.791Z,24.11
2018-09-17T07:32:08.790Z,24.55
2018-09-17T07:33:08.796Z,24.19
2018-09-17T07:34:08.787Z,24.59
2018-09-17T07:35:08.789Z,25.14
2018-09-17T07:36:08.868Z,25.53
2018-09-17T07:37:08.786Z,26.04
2018-09-17T07:38:08.786Z,26.20
2018-09-17T07:39:08.792Z,26.79
2018-09-17T07:40:08.789Z,26.71
2018-09-17T07:41:08.789Z,26.88
2018-09-17T07:42:08.789Z,26.65
2018-09-17T07:43:08.790Z,27.22
2018-09-17T07:44:08.789Z,26.95
2018-09-17T07:45:08.794Z,27.27
2018-09-17T07:46:08.793Z,27.68
2018-09-17T07:47:08.793Z,27.85
2018-09-17T07:48:08.794Z,27.32
2018-09-17T07:49:08.799Z,26.53
2018-09-17T07:50:08.798Z,26.73
2018-09-17T07:51:08.802Z,25.93
2018-09-17T07:52:08.802Z,25.90
2018-09-17T07:53:08.829Z,26.48
2018-09-17T07:54:08.806Z,26.93
2018-09-17T07:55:08.811Z,27.38
2018-09-17T07:56:08.814Z,27.26
2018-09-17T07:57:08.824Z,27.79
2018-09-17T07:58:08.815Z,28.19
2018-09-17T07:59:08.817Z,27.64
2018-09-17T08:00:08.819Z,27.93
2018-09-17T08:01:08.825Z,28.07
2018-09-17T08:02:08.827Z,28.35
2018-09-17T08:03:08.872Z,28.01
2018-09-17T08:04:08.831Z,28.25
2018-09-17T08:05:08.837Z,28.47
2018-09-17T08:06:08.849Z,28.84
2018-09-17T08:07:08.840Z,28.83
2018-09-17T08:08:08.846Z,29.17
2018-09-17T08:09:08.851Z,29.19
2018-09-17T08:10:08.849Z,29.09
2018-09-17T08:11:08.862Z,28.94
2018-09-17T08:12:08.857Z,28.93
2018-09-17T08:13:08.859Z,28.40
2018-09-17T08:14:08.859Z,28.03
2018-09-17T08:15:08.864Z,28.25
2018-09-17T08:16:08.872Z,28.32
2018-09-17T08:17:08.923Z,28.35
2018-09-17T08:18:08.871Z,28.25
2018-09-17T08:19:08.881Z,28.37
2018-09-17T08:20:08.877Z,27.94
2018-09-17T08:21:08.881Z,27.72
2018-09-17T08:22:08.882Z,27.25
2018-09-17T08:23:08.876Z,26.64
2018-09-17T08:24:08.877Z,26.10
2018-09-17T08:25:08.876Z,25.83
2018-09-17T08:26:08.879Z,25.74
2018-09-17T08:27:08.879Z,26.07
2018-09-17T08:28:08.879Z,25.74
2018-09-17T08:29:08.880Z,25.85
2018-09-17T08:30:08.879Z,26.00
2018-09-17T08:31:08.888Z,25.98
2018-09-17T08:32:08.881Z,25.66
2018-09-17T08:33:08.879Z,25.78
2018-09-17T08:34:08.876Z,25.83
2018-09-17T08:35:08.878Z,25.90
2018-09-17T08:36:08.878Z,26.15
2018-09-17T08:37:08.874Z,26.24
2018-09-17T08:38:08.901Z,26.46
2018-09-17T08:39:08.872Z,26.78
2018-09-17T08:40:08.872Z,26.94
2018-09-17T08:41:08.869Z,26.88
2018-09-17T08:42:08.873Z,27.05
2018-09-17T08:43:08.875Z,27.04
2018-09-17T08:44:08.865Z,27.20
2018-09-17T08:45:08.865Z,27.37
2018-09-17T08:46:08.859Z,27.50
2018-09-17T08:47:08.856Z,27.44
2018-09-17T08:48:08.863Z,27.64
2018-09-17T08:49:08.857Z,27.41
2018-09-17T08:50:08.859Z,27.95
2018-09-17T08:51:08.855Z,28.09
2018-09-17T08:52:08.888Z,28.53
2018-09-17T08:53:08.903Z,28.77
2018-09-17T08:54:08.845Z,29.13
2018-09-17T08:55:08.847Z,28.98
2018-09-17T08:56:08.845Z,29.18
2018-09-17T08:57:08.847Z,29.59
2018-09-17T08:58:08.897Z,30.15
2018-09-17T08:59:08.844Z,28.87
2018-09-17T09:00:08.844Z,29.12
2018-09-17T09:01:08.844Z,29.04
2018-09-17T09:02:08.845Z,28.10
2018-09-17T09:03:08.844Z,28.10
2018-09-17T09:04:08.844Z,28.19
2018-09-17T09:05:08.924Z,28.32
2018-09-17T09:06:08.844Z,27.79
2018-09-17T09:07:08.844Z,27.68
2018-09-17T09:08:08.873Z,28.17
2018-09-17T09:09:08.844Z,28.54
2018-09-17T09:10:08.845Z,29.52
2018-09-17T09:11:08.845Z,29.63
2018-09-17T09:12:08.844Z,29.96
2018-09-17T09:13:08.854Z,30.39
2018-09-17T09:14:08.840Z,30.29
2018-09-17T09:15:08.838Z,30.40
2018-09-17T09:16:08.842Z,30.17
2018-09-17T09:17:08.843Z,29.36
2018-09-17T09:18:08.841Z,29.09
2018-09-17T09:19:08.890Z,29.44
2018-09-17T09:20:08.841Z,28.93
2018-09-17T09:21:08.870Z,29.18
2018-09-17T09:22:08.836Z,28.59
2018-09-17T09:23:08.836Z,28.98
2018-09-17T09:24:08.832Z,29.47
2018-09-17T09:25:08.834Z,29.84
2018-09-17T09:26:08.885Z,29.78
2018-09-17T09:27:08.831Z,30.21
2018-09-17T09:28:08.829Z,30.07
2018-09-17T09:29:08.832Z,30.48
2018-09-17T09:30:08.825Z,30.67
2018-09-17T09:31:08.828Z,30.95
2018-09-17T09:32:08.825Z,30.95
2018-09-17T09:33:08.826Z,31.02
2018-09-17T09:34:08.823Z,31.07
2018-09-17T09:35:08.822Z,30.92
2018-09-17T09:36:08.821Z,30.37
2018-09-17T09:37:08.819Z,28.96
2018-09-17T09:38:08.828Z,29.12
2018-09-17T09:39:08.813Z,29.59
2018-09-17T09:40:08.819Z,30.03
2018-09-17T09:41:08.809Z,30.29
2018-09-17T09:42:08.806Z,30.70
2018-09-17T09:43:08.805Z,30.85
2018-09-17T09:44:08.803Z,30.88
2018-09-17T09:45:08.799Z,29.98
2018-09-17T09:46:08.799Z,29.81
2018-09-17T09:47:08.807Z,29.61
2018-09-17T09:48:08.797Z,29.55
2018-09-17T09:49:08.789Z,29.61
2018-09-17T09:50:08.788Z,29.33
2018-09-17T09:51:08.793Z,29.55
2018-09-17T09:52:08.783Z,29.58
2018-09-17T09:53:08.780Z,29.18
2018-09-17T09:54:08.777Z,29.39
2018-09-17T09:55:08.770Z,29.21
2018-09-17T09:56:08.771Z,28.52
2018-09-17T09:57:08.767Z,28.65
2018-09-17T09:58:08.765Z,28.52
2018-09-17T09:59:08.762Z,28.77
2018-09-17T10:00:08.758Z,28.61
2018-09-17T10:01:08.754Z,28.80
2018-09-17T10:02:08.751Z,28.34
2018-09-17T10:03:08.749Z,28.09
2018-09-17T10:04:08.745Z,28.17
2018-09-17T10:05:08.740Z,28.53
2018-09-17T10:06:08.739Z,29.03
2018-09-17T10:07:08.730Z,28.81
2018-09-17T10:08:08.728Z,28.93
2018-09-17T10:09:08.731Z,28.89
2018-09-17T10:10:08.722Z,29.25
2018-09-17T10:11:08.716Z,29.40
2018-09-17T10:12:08.713Z,29.18
2018-09-17T10:13:08.708Z,29.15
2018-09-17T10:14:08.708Z,29.34
2018-09-17T10:15:08.701Z,29.39
2018-09-17T10:16:08.697Z,29.17
2018-09-17T10:17:08.694Z,29.24
2018-09-17T10:18:08.690Z,29.25
2018-09-17T10:19:08.685Z,29.52
2018-09-17T10:20:08.688Z,29.65
2018-09-17T10:21:08.676Z,29.71
2018-09-17T10:22:08.675Z,29.87
2018-09-17T10:23:08.672Z,30.08
2018-09-17T10:24:08.670Z,29.84
2018-09-17T10:25:08.664Z,29.80
2018-09-17T10:26:08.671Z,28.86
2018-09-17T10:27:08.656Z,28.43
2018-09-17T10:28:08.650Z,28.46
2018-09-17T10:29:08.648Z,28.66
2018-09-17T10:30:08.643Z,28.03
2018-09-17T10:31:08.640Z,27.61
2018-09-17T10:32:08.640Z,28.03
2018-09-17T10:33:08.630Z,27.69
2018-09-17T10:34:08.629Z,28.10
2018-09-17T10:35:08.623Z,27.76
2018-09-17T10:36:08.617Z,28.12
2018-09-17T10:37:08.610Z,27.80
2018-09-17T10:38:08.605Z,28.12
2018-09-17T10:39:08.638Z,28.44
2018-09-17T10:40:08.605Z,28.86
2018-09-17T10:41:08.598Z,28.72
2018-09-17T10:42:08.593Z,28.40
2018-09-17T10:43:08.592Z,28.32
2018-09-17T10:44:08.585Z,28.49
2018-09-17T10:45:08.591Z,28.84
2018-09-17T10:46:08.572Z,28.44
2018-09-17T10:47:08.570Z,28.72
2018-09-17T10:48:08.569Z,28.75
2018-09-17T10:49:08.564Z,28.94
2018-09-17T10:50:08.558Z,29.27
2018-09-17T10:51:08.551Z,28.74
2018-09-17T10:52:08.561Z,28.81
2018-09-17T10:53:08.543Z,28.81
2018-09-17T10:54:08.544Z,29.13
2018-09-17T10:55:08.534Z,29.34
2018-09-17T10:56:08.525Z,29.56
2018-09-17T10:57:08.522Z,29.62
2018-09-17T10:58:08.522Z,29.76
2018-09-17T10:59:08.515Z,29.68
2018-09-17T11:00:08.509Z,29.76
2018-09-17T11:01:08.505Z,29.52
2018-09-17T11:02:08.501Z,29.59
2018-09-17T11:03:08.494Z,29.83
2018-09-17T11:04:08.487Z,30.08
2018-09-17T11:05:08.483Z,30.03
2018-09-17T11:06:08.489Z,29.62
2018-09-17T11:07:08.473Z,29.59
2018-09-17T11:08:08.482Z,29.37
2018-09-17T11:09:08.461Z,29.59
2018-09-17T11:10:08.459Z,29.62
2018-09-17T11:11:08.453Z,29.00
2018-09-17T11:12:08.448Z,28.66
2018-09-17T11:13:08.442Z,28.68
2018-09-17T11:14:08.440Z,28.87
2018-09-17T11:15:08.431Z,29.06
2018-09-17T11:16:08.431Z,29.33
2018-09-17T11:17:08.452Z,29.61
2018-09-17T11:18:08.419Z,29.81
2018-09-17T11:19:08.412Z,29.77
2018-09-17T11:20:08.404Z,29.59
2018-09-17T11:21:08.401Z,29.86
2018-09-17T11:22:08.397Z,30.22
2018-09-17T11:23:08.389Z,30.03
2018-09-17T11:24:08.391Z,29.62
2018-09-17T11:25:08.418Z,29.65
2018-09-17T11:26:08.376Z,29.31
2018-09-17T11:27:08.374Z,29.50
2018-09-17T11:28:08.364Z,29.58
2018-09-17T11:29:08.359Z,29.83
2018-09-17T11:30:08.355Z,29.98
2018-09-17T11:31:08.346Z,29.81
2018-09-17T11:32:08.343Z,29.66
2018-09-17T11:33:08.336Z,29.89
2018-09-17T11:34:08.331Z,29.98
2018-09-17T11:35:08.327Z,30.03
2018-09-17T11:36:08.322Z,30.22
2018-09-17T11:37:08.315Z,30.29
2018-09-17T11:38:08.316Z,30.10
2018-09-17T11:39:08.310Z,30.15
2018-09-17T11:40:08.309Z,30.22
2018-09-17T11:41:08.325Z,30.29
2018-09-17T11:42:08.291Z,30.36
2018-09-17T11:43:08.284Z,30.51
2018-09-17T11:44:08.284Z,30.65
2018-09-17T11:45:08.275Z,30.67
2018-09-17T11:46:08.269Z,30.59
2018-09-17T11:47:08.264Z,30.53
2018-09-17T11:48:08.276Z,30.43
2018-09-17T11:49:08.254Z,30.30
2018-09-17T11:50:08.248Z,30.07
2018-09-17T11:51:08.245Z,29.71
2018-09-17T11:52:08.239Z,29.73
2018-09-17T11:53:08.258Z,29.19
2018-09-17T11:54:08.275Z,28.87
2018-09-17T11:55:08.222Z,29.00
2018-09-17T11:56:08.218Z,29.02
2018-09-17T11:57:08.211Z,29.13
2018-09-17T11:58:08.208Z,29.18
2018-09-17T11:59:08.204Z,29.31
2018-09-17T12:00:08.195Z,29.46
2018-09-17T12:01:08.192Z,29.02
2018-09-17T12:02:08.196Z,28.86
2018-09-17T12:03:08.179Z,28.84
2018-09-17T12:04:08.184Z,29.03
2018-09-17T12:05:08.167Z,29.31
2018-09-17T12:06:08.168Z,29.70
2018-09-17T12:07:08.158Z,29.96
2018-09-17T12:08:08.154Z,30.05
2018-09-17T12:09:08.183Z,30.18
2018-09-17T12:10:08.138Z,30.40
2018-09-17T12:11:08.138Z,30.65
2018-09-17T12:12:08.136Z,30.45
2018-09-17T12:13:08.122Z,30.62
2018-09-17T12:14:08.117Z,30.77
2018-09-17T12:15:08.111Z,30.88
2018-09-17T12:16:08.106Z,31.01
2018-09-17T12:17:08.104Z,30.99
2018-09-17T12:18:08.093Z,31.05
2018-09-17T12:19:08.089Z,31.11
2018-09-17T12:20:08.083Z,31.26
2018-09-17T12:21:08.080Z,31.30
2018-09-17T12:22:08.077Z,31.04
2018-09-17T12:23:08.072Z,30.93
2018-09-17T12:24:08.073Z,30.83
2018-09-17T12:25:08.057Z,30.43
2018-09-17T12:26:08.054Z,30.56
2018-09-17T12:27:08.044Z,30.52
2018-09-17T12:28:08.045Z,30.40
2018-09-17T12:29:08.035Z,30.53
2018-09-17T12:30:08.037Z,30.64
2018-09-17T12:31:08.043Z,30.85
2018-09-17T12:32:08.020Z,30.53
2018-09-17T12:33:08.030Z,29.78
2018-09-17T12:34:08.015Z,29.43
2018-09-17T12:35:08.003Z,29.62
2018-09-17T12:36:08.004Z,29.62
2018-09-17T12:37:07.995Z,29.66
2018-09-17T12:38:07.985Z,29.56
2018-09-17T12:39:07.986Z,29.62
2018-09-17T12:40:07.977Z,29.31
2018-09-17T12:41:07.972Z,29.43
2018-09-17T12:42:07.968Z,29.58
2018-09-17T12:43:07.960Z,29.91
2018-09-17T12:44:07.963Z,29.86
2018-09-17T12:45:07.947Z,29.96
2018-09-17T12:46:07.950Z,29.98
2018-09-17T12:47:07.938Z,29.86
2018-09-17T12:48:07.933Z,29.77
2018-09-17T12:49:07.928Z,29.83
2018-09-17T12:50:07.925Z,29.95
2018-09-17T12:51:07.941Z,30.20
2018-09-17T12:52:07.912Z,30.37